sensor_id;sensor_type;location;lat;lon;timestamp;temperature;humidity
37204;DHT22;23098;48.054;10.636;2023-04-21T00:00:43;4.10;99.90
37204;DHT22;23098;48.054;10.636;2023-04-21T00:03:09;4.10;99.90
37204;DHT22;23098;48.054;10.636;2023-04-21T00:05:34;4.10;99.90
37204;DHT22;23098;48.054;10.636;2023-04-21T00:08:00;4.10;99.90
37204;DHT22;23098;48.054;10.636;2023-04-21T00:10:25;4.10;99.90
37204;DHT22;23098;48.054;10.636;2023-04-21T00:12:51;4.10;99.90
37204;DHT22;23098;48.054;10.636;2023-04-21T00:15:17;4.10;99.90
37204;DHT22;23098;48.054;10.636;2023-04-21T00:17:42;4.10;99.90
37204;DHT22;23098;48.054;10.636;2023-04-21T00:20:08;4.10;99.90
37204;DHT22;23098;48.054;10.636;2023-04-21T00:22:35;4.10;99.90
37204;DHT22;23098;48.054;10.636;2023-04-21T00:25:01;4.10;99.90
37204;DHT22;23098;48.054;10.636;2023-04-21T00:27:26;4.10;99.90
37204;DHT22;23098;48.054;10.636;2023-04-21T00:29:52;4.00;99.90
37204;DHT22;23098;48.054;10.636;2023-04-21T00:32:17;4.00;99.90
37204;DHT22;23098;48.054;10.636;2023-04-21T00:34:43;4.00;99.90
37204;DHT22;23098;48.054;10.636;2023-04-21T00:37:08;4.10;99.90
37204;DHT22;23098;48.054;10.636;2023-04-21T00:39:34;4.10;99.90
37204;DHT22;23098;48.054;10.636;2023-04-21T00:41:59;4.10;99.90
37204;DHT22;23098;48.054;10.636;2023-04-21T00:44:25;4.10;99.90
37204;DHT22;23098;48.054;10.636;2023-04-21T00:46:51;4.20;99.90
37204;DHT22;23098;48.054;10.636;2023-04-21T00:49:16;4.20;99.90
37204;DHT22;23098;48.054;10.636;2023-04-21T00:51:42;4.30;99.90
37204;DHT22;23098;48.054;10.636;2023-04-21T00:54:09;4.20;99.90
37204;DHT22;23098;48.054;10.636;2023-04-21T00:56:36;4.20;99.90
37204;DHT22;23098;48.054;10.636;2023-04-21T00:59:02;4.30;99.90
37204;DHT22;23098;48.054;10.636;2023-04-21T01:01:29;4.20;99.90
37204;DHT22;23098;48.054;10.636;2023-04-21T01:03:58;4.30;99.90
37204;DHT22;23098;48.054;10.636;2023-04-21T01:06:27;4.30;99.90
37204;DHT22;23098;48.054;10.636;2023-04-21T01:08:52;4.30;99.90
37204;DHT22;23098;48.054;10.636;2023-04-21T01:11:19;4.30;99.90
37204;DHT22;23098;48.054;10.636;2023-04-21T01:13:45;4.20;99.90
37204;DHT22;23098;48.054;10.636;2023-04-21T01:16:16;4.20;99.90
37204;DHT22;23098;48.054;10.636;2023-04-21T01:18:42;4.20;99.90
37204;DHT22;23098;48.054;10.636;2023-04-21T01:21:07;4.10;99.90
37204;DHT22;23098;48.054;10.636;2023-04-21T01:23:33;4.20;99.90
37204;DHT22;23098;48.054;10.636;2023-04-21T01:25:58;4.20;99.90
37204;DHT22;23098;48.054;10.636;2023-04-21T01:28:25;4.10;99.90
37204;DHT22;23098;48.054;10.636;2023-04-21T01:30:51;4.10;99.90
37204;DHT22;23098;48.054;10.636;2023-04-21T01:33:18;4.10;99.90
37204;DHT22;23098;48.054;10.636;2023-04-21T01:35:44;4.10;99.90
37204;DHT22;23098;48.054;10.636;2023-04-21T01:38:09;4.10;99.90
37204;DHT22;23098;48.054;10.636;2023-04-21T01:40:36;4.10;99.90
37204;DHT22;23098;48.054;10.636;2023-04-21T01:43:01;4.00;99.90
37204;DHT22;23098;48.054;10.636;2023-04-21T01:45:29;4.00;99.90
37204;DHT22;23098;48.054;10.636;2023-04-21T01:47:54;4.00;99.90
37204;DHT22;23098;48.054;10.636;2023-04-21T01:50:20;4.00;99.90
37204;DHT22;23098;48.054;10.636;2023-04-21T01:52:45;4.10;99.90
37204;DHT22;23098;48.054;10.636;2023-04-21T01:55:11;4.10;99.90
37204;DHT22;23098;48.054;10.636;2023-04-21T01:57:37;4.10;99.90
37204;DHT22;23098;48.054;10.636;2023-04-21T02:00:03;4.20;99.90
37204;DHT22;23098;48.054;10.636;2023-04-21T02:02:29;4.20;99.90
37204;DHT22;23098;48.054;10.636;2023-04-21T02:04:54;4.20;99.90
37204;DHT22;23098;48.054;10.636;2023-04-21T02:07:20;4.20;99.90
37204;DHT22;23098;48.054;10.636;2023-04-21T02:09:45;4.20;99.90
37204;DHT22;23098;48.054;10.636;2023-04-21T02:12:11;4.20;99.90
37204;DHT22;23098;48.054;10.636;2023-04-21T02:14:37;4.20;99.90
37204;DHT22;23098;48.054;10.636;2023-04-21T02:17:03;4.20;99.90
37204;DHT22;23098;48.054;10.636;2023-04-21T02:19:29;4.20;99.90
37204;DHT22;23098;48.054;10.636;2023-04-21T02:21:54;4.30;99.90
37204;DHT22;23098;48.054;10.636;2023-04-21T02:24:20;4.30;99.90
37204;DHT22;23098;48.054;10.636;2023-04-21T02:26:46;4.20;99.90
37204;DHT22;23098;48.054;10.636;2023-04-21T02:29:12;4.20;99.90
37204;DHT22;23098;48.054;10.636;2023-04-21T02:31:38;4.20;99.90
37204;DHT22;23098;48.054;10.636;2023-04-21T02:34:04;4.10;99.90
37204;DHT22;23098;48.054;10.636;2023-04-21T02:36:29;4.10;99.90
37204;DHT22;23098;48.054;10.636;2023-04-21T02:38:55;4.10;99.90
37204;DHT22;23098;48.054;10.636;2023-04-21T02:41:21;4.10;99.90
37204;DHT22;23098;48.054;10.636;2023-04-21T02:43:47;4.10;99.90
37204;DHT22;23098;48.054;10.636;2023-04-21T02:46:13;4.10;99.90
37204;DHT22;23098;48.054;10.636;2023-04-21T02:48:39;4.10;99.90
37204;DHT22;23098;48.054;10.636;2023-04-21T02:51:04;4.20;99.90
37204;DHT22;23098;48.054;10.636;2023-04-21T02:53:35;4.20;99.90
37204;DHT22;23098;48.054;10.636;2023-04-21T02:56:01;4.20;99.90
37204;DHT22;23098;48.054;10.636;2023-04-21T02:58:29;4.20;99.90
37204;DHT22;23098;48.054;10.636;2023-04-21T03:00:55;4.20;99.90
37204;DHT22;23098;48.054;10.636;2023-04-21T03:03:20;4.20;99.90
37204;DHT22;23098;48.054;10.636;2023-04-21T03:05:46;4.20;99.90
37204;DHT22;23098;48.054;10.636;2023-04-21T03:08:12;4.20;99.90
37204;DHT22;23098;48.054;10.636;2023-04-21T03:10:37;4.30;99.90
37204;DHT22;23098;48.054;10.636;2023-04-21T03:13:03;4.40;99.90
37204;DHT22;23098;48.054;10.636;2023-04-21T03:15:29;4.40;99.90
37204;DHT22;23098;48.054;10.636;2023-04-21T03:17:55;4.40;99.90
37204;DHT22;23098;48.054;10.636;2023-04-21T03:20:20;4.40;99.90
37204;DHT22;23098;48.054;10.636;2023-04-21T03:22:46;4.40;99.90
37204;DHT22;23098;48.054;10.636;2023-04-21T03:25:11;4.40;99.90
37204;DHT22;23098;48.054;10.636;2023-04-21T03:27:37;4.40;99.90
37204;DHT22;23098;48.054;10.636;2023-04-21T03:30:03;4.50;99.90
37204;DHT22;23098;48.054;10.636;2023-04-21T03:32:29;4.40;99.90
37204;DHT22;23098;48.054;10.636;2023-04-21T03:34:55;4.50;99.90
37204;DHT22;23098;48.054;10.636;2023-04-21T03:37:20;4.50;99.90
37204;DHT22;23098;48.054;10.636;2023-04-21T03:39:46;4.50;99.90
37204;DHT22;23098;48.054;10.636;2023-04-21T03:42:11;4.50;99.90
37204;DHT22;23098;48.054;10.636;2023-04-21T03:44:37;4.50;99.90
37204;DHT22;23098;48.054;10.636;2023-04-21T03:47:03;4.50;99.90
37204;DHT22;23098;48.054;10.636;2023-04-21T03:49:29;4.50;99.90
37204;DHT22;23098;48.054;10.636;2023-04-21T03:51:54;4.50;99.90
37204;DHT22;23098;48.054;10.636;2023-04-21T03:54:20;4.60;99.90
37204;DHT22;23098;48.054;10.636;2023-04-21T03:56:45;4.60;99.90
37204;DHT22;23098;48.054;10.636;2023-04-21T03:59:11;4.60;99.90
37204;DHT22;23098;48.054;10.636;2023-04-21T04:01:36;4.60;99.90
37204;DHT22;23098;48.054;10.636;2023-04-21T04:04:02;4.60;99.90
37204;DHT22;23098;48.054;10.636;2023-04-21T04:06:27;4.60;99.90
37204;DHT22;23098;48.054;10.636;2023-04-21T04:08:53;4.50;99.90
37204;DHT22;23098;48.054;10.636;2023-04-21T04:11:19;4.50;99.90
37204;DHT22;23098;48.054;10.636;2023-04-21T04:13:45;4.50;99.90
37204;DHT22;23098;48.054;10.636;2023-04-21T04:16:11;4.60;99.90
37204;DHT22;23098;48.054;10.636;2023-04-21T04:18:37;4.60;99.90
37204;DHT22;23098;48.054;10.636;2023-04-21T04:21:06;4.60;99.90
37204;DHT22;23098;48.054;10.636;2023-04-21T04:23:32;4.60;99.90
37204;DHT22;23098;48.054;10.636;2023-04-21T04:25:58;4.70;99.90
37204;DHT22;23098;48.054;10.636;2023-04-21T04:28:23;4.70;99.90
37204;DHT22;23098;48.054;10.636;2023-04-21T04:30:49;4.70;99.90
37204;DHT22;23098;48.054;10.636;2023-04-21T04:33:15;4.70;99.90
37204;DHT22;23098;48.054;10.636;2023-04-21T04:35:40;4.70;99.90
37204;DHT22;23098;48.054;10.636;2023-04-21T04:38:06;4.70;99.90
37204;DHT22;23098;48.054;10.636;2023-04-21T04:40:32;4.70;99.90
37204;DHT22;23098;48.054;10.636;2023-04-21T04:42:58;4.70;99.90
37204;DHT22;23098;48.054;10.636;2023-04-21T04:45:25;4.70;99.90
37204;DHT22;23098;48.054;10.636;2023-04-21T04:47:51;4.80;99.90
37204;DHT22;23098;48.054;10.636;2023-04-21T04:50:16;4.80;99.90
37204;DHT22;23098;48.054;10.636;2023-04-21T04:52:42;4.80;99.90
37204;DHT22;23098;48.054;10.636;2023-04-21T04:55:11;4.80;99.90
37204;DHT22;23098;48.054;10.636;2023-04-21T04:57:37;4.90;99.90
37204;DHT22;23098;48.054;10.636;2023-04-21T05:00:04;4.90;99.90
37204;DHT22;23098;48.054;10.636;2023-04-21T05:02:31;5.00;99.90
37204;DHT22;23098;48.054;10.636;2023-04-21T05:04:56;5.00;99.90
37204;DHT22;23098;48.054;10.636;2023-04-21T05:07:22;5.00;99.90
37204;DHT22;23098;48.054;10.636;2023-04-21T05:09:47;5.10;99.90
37204;DHT22;23098;48.054;10.636;2023-04-21T05:12:13;5.20;99.90
37204;DHT22;23098;48.054;10.636;2023-04-21T05:14:39;5.20;99.90
37204;DHT22;23098;48.054;10.636;2023-04-21T05:17:04;5.20;99.90
37204;DHT22;23098;48.054;10.636;2023-04-21T05:19:30;5.30;99.90
37204;DHT22;23098;48.054;10.636;2023-04-21T05:21:59;5.30;99.90
37204;DHT22;23098;48.054;10.636;2023-04-21T05:24:27;5.40;99.90
37204;DHT22;23098;48.054;10.636;2023-04-21T05:26:53;5.40;99.90
37204;DHT22;23098;48.054;10.636;2023-04-21T05:29:18;5.40;99.90
37204;DHT22;23098;48.054;10.636;2023-04-21T05:31:44;5.40;99.90
37204;DHT22;23098;48.054;10.636;2023-04-21T05:34:09;5.50;99.90
37204;DHT22;23098;48.054;10.636;2023-04-21T05:36:35;5.50;99.90
37204;DHT22;23098;48.054;10.636;2023-04-21T05:39:00;5.50;99.90
37204;DHT22;23098;48.054;10.636;2023-04-21T05:41:27;5.60;99.90
37204;DHT22;23098;48.054;10.636;2023-04-21T05:43:52;5.60;99.90
37204;DHT22;23098;48.054;10.636;2023-04-21T05:46:18;5.70;99.90
37204;DHT22;23098;48.054;10.636;2023-04-21T05:48:43;5.70;99.90
37204;DHT22;23098;48.054;10.636;2023-04-21T05:51:09;5.80;99.90
37204;DHT22;23098;48.054;10.636;2023-04-21T05:53:36;5.80;99.90
37204;DHT22;23098;48.054;10.636;2023-04-21T05:56:02;5.90;99.90
37204;DHT22;23098;48.054;10.636;2023-04-21T05:58:28;6.20;99.90
37204;DHT22;23098;48.054;10.636;2023-04-21T06:00:53;6.70;99.90
37204;DHT22;23098;48.054;10.636;2023-04-21T06:03:19;7.00;99.90
37204;DHT22;23098;48.054;10.636;2023-04-21T06:05:44;7.50;99.90
37204;DHT22;23098;48.054;10.636;2023-04-21T06:08:11;7.90;99.90
37204;DHT22;23098;48.054;10.636;2023-04-21T06:10:37;8.20;99.90
37204;DHT22;23098;48.054;10.636;2023-04-21T06:13:02;8.00;99.90
37204;DHT22;23098;48.054;10.636;2023-04-21T06:15:28;8.40;99.90
37204;DHT22;23098;48.054;10.636;2023-04-21T06:17:54;8.60;99.90
37204;DHT22;23098;48.054;10.636;2023-04-21T06:20:19;8.60;99.90
37204;DHT22;23098;48.054;10.636;2023-04-21T06:22:45;8.70;99.90
37204;DHT22;23098;48.054;10.636;2023-04-21T06:25:11;8.20;99.90
37204;DHT22;23098;48.054;10.636;2023-04-21T06:27:36;8.00;99.90
37204;DHT22;23098;48.054;10.636;2023-04-21T06:30:02;7.70;99.90
37204;DHT22;23098;48.054;10.636;2023-04-21T06:32:27;7.60;99.90
37204;DHT22;23098;48.054;10.636;2023-04-21T06:34:53;7.60;99.90
37204;DHT22;23098;48.054;10.636;2023-04-21T06:37:18;7.50;99.90
37204;DHT22;23098;48.054;10.636;2023-04-21T06:39:44;7.50;99.90
37204;DHT22;23098;48.054;10.636;2023-04-21T06:42:09;7.30;99.90
37204;DHT22;23098;48.054;10.636;2023-04-21T06:44:35;7.20;99.90
37204;DHT22;23098;48.054;10.636;2023-04-21T06:47:02;7.10;99.90
37204;DHT22;23098;48.054;10.636;2023-04-21T06:49:27;7.00;99.90
37204;DHT22;23098;48.054;10.636;2023-04-21T06:51:53;7.00;99.90
37204;DHT22;23098;48.054;10.636;2023-04-21T06:54:18;7.10;99.90
37204;DHT22;23098;48.054;10.636;2023-04-21T06:56:44;7.00;99.90
37204;DHT22;23098;48.054;10.636;2023-04-21T06:59:09;6.90;99.90
37204;DHT22;23098;48.054;10.636;2023-04-21T07:01:35;7.20;99.90
37204;DHT22;23098;48.054;10.636;2023-04-21T07:04:01;7.30;99.90
37204;DHT22;23098;48.054;10.636;2023-04-21T07:06:26;7.40;99.90
37204;DHT22;23098;48.054;10.636;2023-04-21T07:08:52;7.20;99.90
37204;DHT22;23098;48.054;10.636;2023-04-21T07:11:17;7.10;99.90
37204;DHT22;23098;48.054;10.636;2023-04-21T07:13:43;7.20;99.90
37204;DHT22;23098;48.054;10.636;2023-04-21T07:16:09;7.50;99.90
37204;DHT22;23098;48.054;10.636;2023-04-21T07:18:34;7.60;99.90
37204;DHT22;23098;48.054;10.636;2023-04-21T07:21:00;7.60;99.90
37204;DHT22;23098;48.054;10.636;2023-04-21T07:23:25;8.00;99.90
37204;DHT22;23098;48.054;10.636;2023-04-21T07:25:51;7.80;99.90
37204;DHT22;23098;48.054;10.636;2023-04-21T07:28:16;8.60;99.90
37204;DHT22;23098;48.054;10.636;2023-04-21T07:30:42;8.40;99.90
37204;DHT22;23098;48.054;10.636;2023-04-21T07:33:07;8.40;99.90
37204;DHT22;23098;48.054;10.636;2023-04-21T07:35:33;8.50;99.90
37204;DHT22;23098;48.054;10.636;2023-04-21T07:37:59;8.90;99.90
37204;DHT22;23098;48.054;10.636;2023-04-21T07:40:24;8.90;99.90
37204;DHT22;23098;48.054;10.636;2023-04-21T07:42:50;8.90;99.90
37204;DHT22;23098;48.054;10.636;2023-04-21T07:45:15;9.30;99.90
37204;DHT22;23098;48.054;10.636;2023-04-21T07:47:41;9.30;99.90
37204;DHT22;23098;48.054;10.636;2023-04-21T07:50:07;9.40;99.90
37204;DHT22;23098;48.054;10.636;2023-04-21T07:52:33;9.40;99.90
37204;DHT22;23098;48.054;10.636;2023-04-21T07:54:58;9.10;99.90
37204;DHT22;23098;48.054;10.636;2023-04-21T07:57:24;9.30;99.90
37204;DHT22;23098;48.054;10.636;2023-04-21T07:59:50;9.40;99.90
37204;DHT22;23098;48.054;10.636;2023-04-21T08:02:16;9.00;99.90
37204;DHT22;23098;48.054;10.636;2023-04-21T08:04:41;9.30;99.90
37204;DHT22;23098;48.054;10.636;2023-04-21T08:07:07;9.20;99.90
37204;DHT22;23098;48.054;10.636;2023-04-21T08:09:34;9.20;99.90
37204;DHT22;23098;48.054;10.636;2023-04-21T08:11:59;9.40;99.90
37204;DHT22;23098;48.054;10.636;2023-04-21T08:14:26;9.30;99.90
37204;DHT22;23098;48.054;10.636;2023-04-21T08:16:52;9.30;99.90
37204;DHT22;23098;48.054;10.636;2023-04-21T08:19:18;9.60;99.90
37204;DHT22;23098;48.054;10.636;2023-04-21T08:21:44;9.50;99.90
37204;DHT22;23098;48.054;10.636;2023-04-21T08:24:09;9.80;99.90
37204;DHT22;23098;48.054;10.636;2023-04-21T08:26:35;9.90;99.90
37204;DHT22;23098;48.054;10.636;2023-04-21T08:29:00;9.80;99.90
37204;DHT22;23098;48.054;10.636;2023-04-21T08:31:26;9.70;99.90
37204;DHT22;23098;48.054;10.636;2023-04-21T08:33:52;9.50;99.90
37204;DHT22;23098;48.054;10.636;2023-04-21T08:36:18;9.80;99.90
37204;DHT22;23098;48.054;10.636;2023-04-21T08:38:44;9.70;99.90
37204;DHT22;23098;48.054;10.636;2023-04-21T08:41:10;9.90;99.90
37204;DHT22;23098;48.054;10.636;2023-04-21T08:43:37;9.90;99.90
37204;DHT22;23098;48.054;10.636;2023-04-21T08:46:06;10.50;99.90
37204;DHT22;23098;48.054;10.636;2023-04-21T08:48:35;10.30;99.90
37204;DHT22;23098;48.054;10.636;2023-04-21T08:51:01;10.80;99.90
37204;DHT22;23098;48.054;10.636;2023-04-21T08:53:27;10.80;99.90
37204;DHT22;23098;48.054;10.636;2023-04-21T08:55:55;10.80;99.90
37204;DHT22;23098;48.054;10.636;2023-04-21T08:58:21;11.00;99.90
37204;DHT22;23098;48.054;10.636;2023-04-21T09:00:47;11.20;99.90
37204;DHT22;23098;48.054;10.636;2023-04-21T09:03:13;11.10;99.90
37204;DHT22;23098;48.054;10.636;2023-04-21T09:05:56;11.50;99.90
37204;DHT22;23098;48.054;10.636;2023-04-21T09:08:22;10.90;99.90
37204;DHT22;23098;48.054;10.636;2023-04-21T09:10:48;11.00;99.90
37204;DHT22;23098;48.054;10.636;2023-04-21T09:13:15;10.60;99.90
37204;DHT22;23098;48.054;10.636;2023-04-21T09:15:42;10.80;99.90
37204;DHT22;23098;48.054;10.636;2023-04-21T09:18:19;11.10;99.90
37204;DHT22;23098;48.054;10.636;2023-04-21T09:20:50;11.70;99.90
37204;DHT22;23098;48.054;10.636;2023-04-21T09:23:16;12.20;99.90
37204;DHT22;23098;48.054;10.636;2023-04-21T09:25:44;12.40;99.90
37204;DHT22;23098;48.054;10.636;2023-04-21T09:28:11;12.40;99.90
37204;DHT22;23098;48.054;10.636;2023-04-21T09:30:38;12.20;99.90
37204;DHT22;23098;48.054;10.636;2023-04-21T09:33:04;12.70;99.90
37204;DHT22;23098;48.054;10.636;2023-04-21T09:35:36;12.50;99.90
37204;DHT22;23098;48.054;10.636;2023-04-21T09:38:05;12.90;99.90
37204;DHT22;23098;48.054;10.636;2023-04-21T09:40:33;12.50;99.90
37204;DHT22;23098;48.054;10.636;2023-04-21T09:42:59;12.10;99.90
37204;DHT22;23098;48.054;10.636;2023-04-21T09:45:26;12.70;99.90
37204;DHT22;23098;48.054;10.636;2023-04-21T09:47:54;12.50;99.90
37204;DHT22;23098;48.054;10.636;2023-04-21T09:50:22;12.60;99.90
37204;DHT22;23098;48.054;10.636;2023-04-21T09:52:50;12.80;99.90
37204;DHT22;23098;48.054;10.636;2023-04-21T09:55:18;12.80;99.90
37204;DHT22;23098;48.054;10.636;2023-04-21T09:57:46;12.90;99.90
37204;DHT22;23098;48.054;10.636;2023-04-21T10:00:13;13.00;99.90
37204;DHT22;23098;48.054;10.636;2023-04-21T10:02:43;13.00;99.90
37204;DHT22;23098;48.054;10.636;2023-04-21T10:05:10;13.00;99.90
37204;DHT22;23098;48.054;10.636;2023-04-21T10:07:36;13.00;99.90
37204;DHT22;23098;48.054;10.636;2023-04-21T10:10:02;12.70;99.90
37204;DHT22;23098;48.054;10.636;2023-04-21T10:12:32;12.80;99.90
37204;DHT22;23098;48.054;10.636;2023-04-21T10:15:03;13.00;99.90
37204;DHT22;23098;48.054;10.636;2023-04-21T10:17:29;13.10;99.90
37204;DHT22;23098;48.054;10.636;2023-04-21T10:19:58;12.80;99.90
37204;DHT22;23098;48.054;10.636;2023-04-21T10:22:30;13.40;99.90
37204;DHT22;23098;48.054;10.636;2023-04-21T10:24:57;13.20;99.90
37204;DHT22;23098;48.054;10.636;2023-04-21T10:27:39;13.90;99.90
37204;DHT22;23098;48.054;10.636;2023-04-21T10:30:21;13.70;99.90
37204;DHT22;23098;48.054;10.636;2023-04-21T10:32:48;14.20;99.90
37204;DHT22;23098;48.054;10.636;2023-04-21T10:35:16;13.80;99.90
37204;DHT22;23098;48.054;10.636;2023-04-21T10:37:49;13.60;99.90
37204;DHT22;23098;48.054;10.636;2023-04-21T10:40:35;13.90;99.90
37204;DHT22;23098;48.054;10.636;2023-04-21T10:43:04;13.90;99.90
37204;DHT22;23098;48.054;10.636;2023-04-21T10:45:30;14.30;99.90
37204;DHT22;23098;48.054;10.636;2023-04-21T10:47:59;14.10;99.90
37204;DHT22;23098;48.054;10.636;2023-04-21T10:50:30;14.40;99.90
37204;DHT22;23098;48.054;10.636;2023-04-21T10:52:58;14.60;99.90
37204;DHT22;23098;48.054;10.636;2023-04-21T10:55:28;14.70;99.90
37204;DHT22;23098;48.054;10.636;2023-04-21T10:57:54;14.90;99.90
37204;DHT22;23098;48.054;10.636;2023-04-21T11:00:22;14.30;99.90
37204;DHT22;23098;48.054;10.636;2023-04-21T11:02:55;14.30;99.90
37204;DHT22;23098;48.054;10.636;2023-04-21T11:05:30;14.90;99.90
37204;DHT22;23098;48.054;10.636;2023-04-21T11:08:04;14.90;99.90
37204;DHT22;23098;48.054;10.636;2023-04-21T11:10:45;15.60;99.90
37204;DHT22;23098;48.054;10.636;2023-04-21T11:13:10;15.10;99.90
37204;DHT22;23098;48.054;10.636;2023-04-21T11:15:36;15.30;99.90
37204;DHT22;23098;48.054;10.636;2023-04-21T11:18:01;15.20;99.90
37204;DHT22;23098;48.054;10.636;2023-04-21T11:20:27;14.60;99.90
37204;DHT22;23098;48.054;10.636;2023-04-21T11:22:55;15.30;99.90
37204;DHT22;23098;48.054;10.636;2023-04-21T11:25:21;14.80;99.90
37204;DHT22;23098;48.054;10.636;2023-04-21T11:27:56;15.10;99.90
37204;DHT22;23098;48.054;10.636;2023-04-21T11:30:31;15.50;99.90
37204;DHT22;23098;48.054;10.636;2023-04-21T11:33:00;15.10;99.90
37204;DHT22;23098;48.054;10.636;2023-04-21T11:35:26;15.60;99.90
37204;DHT22;23098;48.054;10.636;2023-04-21T11:37:51;16.10;99.90
37204;DHT22;23098;48.054;10.636;2023-04-21T11:40:17;15.80;99.90
37204;DHT22;23098;48.054;10.636;2023-04-21T11:42:43;16.10;99.90
37204;DHT22;23098;48.054;10.636;2023-04-21T11:48:16;16.30;99.90
37204;DHT22;23098;48.054;10.636;2023-04-21T11:50:49;15.90;99.90
37204;DHT22;23098;48.054;10.636;2023-04-21T11:53:15;16.20;99.90
37204;DHT22;23098;48.054;10.636;2023-04-21T11:55:47;16.80;99.90
37204;DHT22;23098;48.054;10.636;2023-04-21T11:58:12;16.20;99.90
37204;DHT22;23098;48.054;10.636;2023-04-21T12:00:43;16.00;99.90
37204;DHT22;23098;48.054;10.636;2023-04-21T12:03:10;15.90;99.90
37204;DHT22;23098;48.054;10.636;2023-04-21T12:05:36;16.30;99.90
37204;DHT22;23098;48.054;10.636;2023-04-21T12:08:02;16.50;99.70
37204;DHT22;23098;48.054;10.636;2023-04-21T12:10:31;16.50;99.90
37204;DHT22;23098;48.054;10.636;2023-04-21T12:12:57;16.60;99.90
37204;DHT22;23098;48.054;10.636;2023-04-21T12:15:22;16.50;99.90
37204;DHT22;23098;48.054;10.636;2023-04-21T12:17:49;16.60;99.90
37204;DHT22;23098;48.054;10.636;2023-04-21T12:20:17;16.50;99.90
37204;DHT22;23098;48.054;10.636;2023-04-21T12:22:43;16.60;99.90
37204;DHT22;23098;48.054;10.636;2023-04-21T12:25:08;16.80;99.90
37204;DHT22;23098;48.054;10.636;2023-04-21T12:27:34;16.60;99.90
37204;DHT22;23098;48.054;10.636;2023-04-21T12:30:00;16.90;99.90
37204;DHT22;23098;48.054;10.636;2023-04-21T12:32:26;16.20;99.90
37204;DHT22;23098;48.054;10.636;2023-04-21T12:34:51;16.50;99.90
37204;DHT22;23098;48.054;10.636;2023-04-21T12:37:17;16.30;99.90
37204;DHT22;23098;48.054;10.636;2023-04-21T12:39:43;17.10;99.90
37204;DHT22;23098;48.054;10.636;2023-04-21T12:42:09;16.70;99.90
37204;DHT22;23098;48.054;10.636;2023-04-21T12:44:34;17.00;99.90
37204;DHT22;23098;48.054;10.636;2023-04-21T12:47:00;16.90;99.00
37204;DHT22;23098;48.054;10.636;2023-04-21T12:49:26;17.10;99.70
37204;DHT22;23098;48.054;10.636;2023-04-21T12:51:51;16.80;99.90
37204;DHT22;23098;48.054;10.636;2023-04-21T12:54:17;16.80;99.90
37204;DHT22;23098;48.054;10.636;2023-04-21T12:56:43;17.30;99.70
37204;DHT22;23098;48.054;10.636;2023-04-21T12:59:09;17.80;99.70
37204;DHT22;23098;48.054;10.636;2023-04-21T13:01:36;17.80;98.80
37204;DHT22;23098;48.054;10.636;2023-04-21T13:04:03;17.80;98.80
37204;DHT22;23098;48.054;10.636;2023-04-21T13:06:29;17.40;98.90
37204;DHT22;23098;48.054;10.636;2023-04-21T13:08:55;17.20;99.70
37204;DHT22;23098;48.054;10.636;2023-04-21T13:11:21;17.80;99.00
37204;DHT22;23098;48.054;10.636;2023-04-21T13:13:47;17.10;99.00
37204;DHT22;23098;48.054;10.636;2023-04-21T13:16:12;17.00;99.90
37204;DHT22;23098;48.054;10.636;2023-04-21T13:18:38;16.90;99.30
37204;DHT22;23098;48.054;10.636;2023-04-21T13:21:04;17.20;98.80
37204;DHT22;23098;48.054;10.636;2023-04-21T13:23:30;17.90;98.10
37204;DHT22;23098;48.054;10.636;2023-04-21T13:25:56;17.60;98.50
37204;DHT22;23098;48.054;10.636;2023-04-21T13:28:22;17.40;98.80
37204;DHT22;23098;48.054;10.636;2023-04-21T13:30:51;17.50;98.30
37204;DHT22;23098;48.054;10.636;2023-04-21T13:33:17;17.60;98.80
37204;DHT22;23098;48.054;10.636;2023-04-21T13:35:43;17.50;99.00
37204;DHT22;23098;48.054;10.636;2023-04-21T13:38:08;18.10;98.90
37204;DHT22;23098;48.054;10.636;2023-04-21T13:40:34;18.00;97.80
37204;DHT22;23098;48.054;10.636;2023-04-21T13:42:59;17.70;97.70
37204;DHT22;23098;48.054;10.636;2023-04-21T13:45:25;17.70;98.20
37204;DHT22;23098;48.054;10.636;2023-04-21T13:47:51;17.50;98.20
37204;DHT22;23098;48.054;10.636;2023-04-21T13:50:17;17.90;98.30
37204;DHT22;23098;48.054;10.636;2023-04-21T13:52:43;18.20;97.70
37204;DHT22;23098;48.054;10.636;2023-04-21T13:55:09;18.00;98.80
37204;DHT22;23098;48.054;10.636;2023-04-21T13:57:35;17.60;97.00
37204;DHT22;23098;48.054;10.636;2023-04-21T14:00:01;17.90;98.00
37204;DHT22;23098;48.054;10.636;2023-04-21T14:02:30;17.20;97.80
37204;DHT22;23098;48.054;10.636;2023-04-21T14:04:55;17.00;98.10
37204;DHT22;23098;48.054;10.636;2023-04-21T14:07:21;17.00;99.20
37204;DHT22;23098;48.054;10.636;2023-04-21T14:09:49;17.10;99.50
37204;DHT22;23098;48.054;10.636;2023-04-21T14:12:16;17.20;98.80
37204;DHT22;23098;48.054;10.636;2023-04-21T14:14:41;17.40;98.80
37204;DHT22;23098;48.054;10.636;2023-04-21T14:17:07;18.20;99.00
37204;DHT22;23098;48.054;10.636;2023-04-21T14:19:33;18.40;97.30
37204;DHT22;23098;48.054;10.636;2023-04-21T14:21:59;18.00;97.90
37204;DHT22;23098;48.054;10.636;2023-04-21T14:24:24;18.30;97.90
37204;DHT22;23098;48.054;10.636;2023-04-21T14:26:53;18.30;96.30
37204;DHT22;23098;48.054;10.636;2023-04-21T14:29:18;18.30;96.40
37204;DHT22;23098;48.054;10.636;2023-04-21T14:31:44;18.50;97.70
37204;DHT22;23098;48.054;10.636;2023-04-21T14:34:09;18.70;97.00
37204;DHT22;23098;48.054;10.636;2023-04-21T14:36:35;18.40;97.40
37204;DHT22;23098;48.054;10.636;2023-04-21T14:39:01;18.40;96.60
37204;DHT22;23098;48.054;10.636;2023-04-21T14:41:26;18.20;98.00
37204;DHT22;23098;48.054;10.636;2023-04-21T14:43:52;18.30;97.10
37204;DHT22;23098;48.054;10.636;2023-04-21T14:46:20;18.40;96.80
37204;DHT22;23098;48.054;10.636;2023-04-21T14:48:46;17.90;96.90
37204;DHT22;23098;48.054;10.636;2023-04-21T14:51:11;18.20;97.10
37204;DHT22;23098;48.054;10.636;2023-04-21T14:53:37;18.10;97.00
37204;DHT22;23098;48.054;10.636;2023-04-21T14:56:02;18.40;96.30
37204;DHT22;23098;48.054;10.636;2023-04-21T14:58:28;18.50;96.10
37204;DHT22;23098;48.054;10.636;2023-04-21T15:00:53;18.40;97.00
37204;DHT22;23098;48.054;10.636;2023-04-21T15:03:19;18.40;96.60
37204;DHT22;23098;48.054;10.636;2023-04-21T15:05:45;18.80;96.90
37204;DHT22;23098;48.054;10.636;2023-04-21T15:08:10;18.10;96.00
37204;DHT22;23098;48.054;10.636;2023-04-21T15:10:36;18.30;96.10
37204;DHT22;23098;48.054;10.636;2023-04-21T15:13:01;18.10;96.60
37204;DHT22;23098;48.054;10.636;2023-04-21T15:15:27;18.30;96.40
37204;DHT22;23098;48.054;10.636;2023-04-21T15:17:52;18.20;96.70
37204;DHT22;23098;48.054;10.636;2023-04-21T15:20:18;18.60;96.40
37204;DHT22;23098;48.054;10.636;2023-04-21T15:22:44;18.50;96.10